sensor_id;sensor_type;location;lat;lon;timestamp;P1;durP1;ratioP1;P2;durP2;ratioP2
15871;SDS011;8035;51.962;7.162;2023-08-07T00:02:07;2.27;;;2.07;;
15871;SDS011;8035;51.962;7.162;2023-08-07T00:04:32;3.10;;;2.10;;
15871;SDS011;8035;51.962;7.162;2023-08-07T00:06:58;2.33;;;2.10;;
15871;SDS011;8035;51.962;7.162;2023-08-07T00:09:23;2.93;;;2.50;;
15871;SDS011;8035;51.962;7.162;2023-08-07T00:11:49;2.30;;;2.07;;
15871;SDS011;8035;51.962;7.162;2023-08-07T00:14:14;4.23;;;2.43;;
15871;SDS011;8035;51.962;7.162;2023-08-07T00:16:41;2.80;;;2.50;;
15871;SDS011;8035;51.962;7.162;2023-08-07T00:19:07;2.50;;;2.30;;
15871;SDS011;8035;51.962;7.162;2023-08-07T00:21:32;2.50;;;2.30;;
15871;SDS011;8035;51.962;7.162;2023-08-07T00:24:00;5.63;;;2.53;;
15871;SDS011;8035;51.962;7.162;2023-08-07T00:26:26;3.63;;;2.30;;
15871;SDS011;8035;51.962;7.162;2023-08-07T00:28:52;4.40;;;2.90;;
15871;SDS011;8035;51.962;7.162;2023-08-07T00:31:17;3.10;;;2.80;;
15871;SDS011;8035;51.962;7.162;2023-08-07T00:33:43;8.00;;;3.37;;
15871;SDS011;8035;51.962;7.162;2023-08-07T00:36:08;3.97;;;2.47;;
15871;SDS011;8035;51.962;7.162;2023-08-07T00:38:34;3.80;;;2.70;;
15871;SDS011;8035;51.962;7.162;2023-08-07T00:40:59;5.83;;;2.43;;
15871;SDS011;8035;51.962;7.162;2023-08-07T00:43:25;2.60;;;2.23;;
15871;SDS011;8035;51.962;7.162;2023-08-07T00:45:51;4.77;;;1.80;;
15871;SDS011;8035;51.962;7.162;2023-08-07T00:48:16;3.90;;;1.93;;
15871;SDS011;8035;51.962;7.162;2023-08-07T00:50:42;5.03;;;1.60;;
15871;SDS011;8035;51.962;7.162;2023-08-07T00:53:09;2.07;;;1.43;;
15871;SDS011;8035;51.962;7.162;2023-08-07T00:55:35;2.53;;;1.70;;
15871;SDS011;8035;51.962;7.162;2023-08-07T00:58:01;2.47;;;1.20;;
15871;SDS011;8035;51.962;7.162;2023-08-07T01:00:27;2.87;;;1.40;;
15871;SDS011;8035;51.962;7.162;2023-08-07T01:02:55;3.30;;;1.60;;
15871;SDS011;8035;51.962;7.162;2023-08-07T01:05:22;6.00;;;1.70;;
15871;SDS011;8035;51.962;7.162;2023-08-07T01:07:52;2.67;;;1.23;;
15871;SDS011;8035;51.962;7.162;2023-08-07T01:10:20;2.63;;;1.57;;
15871;SDS011;8035;51.962;7.162;2023-08-07T01:13:01;3.13;;;1.70;;
15871;SDS011;8035;51.962;7.162;2023-08-07T01:15:39;4.90;;;1.80;;
15871;SDS011;8035;51.962;7.162;2023-08-07T01:18:06;4.20;;;1.70;;
15871;SDS011;8035;51.962;7.162;2023-08-07T01:20:33;2.60;;;1.53;;
15871;SDS011;8035;51.962;7.162;2023-08-07T01:22:58;3.17;;;1.70;;
15871;SDS011;8035;51.962;7.162;2023-08-07T01:25:24;4.13;;;1.47;;
15871;SDS011;8035;51.962;7.162;2023-08-07T01:28:07;2.07;;;1.30;;
15871;SDS011;8035;51.962;7.162;2023-08-07T01:30:48;4.13;;;1.70;;
15871;SDS011;8035;51.962;7.162;2023-08-07T01:33:32;2.60;;;1.20;;
15871;SDS011;8035;51.962;7.162;2023-08-07T01:36:05;3.63;;;1.50;;
15871;SDS011;8035;51.962;7.162;2023-08-07T01:38:32;4.33;;;1.57;;
15871;SDS011;8035;51.962;7.162;2023-08-07T01:40:58;3.33;;;1.53;;
15871;SDS011;8035;51.962;7.162;2023-08-07T01:43:25;3.97;;;1.60;;
15871;SDS011;8035;51.962;7.162;2023-08-07T01:45:51;4.90;;;1.70;;
15871;SDS011;8035;51.962;7.162;2023-08-07T01:48:17;3.30;;;1.30;;
15871;SDS011;8035;51.962;7.162;2023-08-07T01:50:43;2.67;;;1.30;;
15871;SDS011;8035;51.962;7.162;2023-08-07T01:53:08;1.53;;;1.07;;
15871;SDS011;8035;51.962;7.162;2023-08-07T01:55:34;4.77;;;1.10;;
15871;SDS011;8035;51.962;7.162;2023-08-07T01:57:59;2.00;;;1.00;;
15871;SDS011;8035;51.962;7.162;2023-08-07T02:00:25;1.30;;;1.00;;
15871;SDS011;8035;51.962;7.162;2023-08-07T02:02:50;1.20;;;1.00;;
15871;SDS011;8035;51.962;7.162;2023-08-07T02:05:16;6.50;;;1.43;;
15871;SDS011;8035;51.962;7.162;2023-08-07T02:07:42;1.80;;;1.30;;
15871;SDS011;8035;51.962;7.162;2023-08-07T02:10:08;2.00;;;1.40;;
15871;SDS011;8035;51.962;7.162;2023-08-07T02:12:34;1.70;;;1.60;;
15871;SDS011;8035;51.962;7.162;2023-08-07T02:14:59;5.63;;;1.90;;
15871;SDS011;8035;51.962;7.162;2023-08-07T02:17:27;2.37;;;1.93;;
15871;SDS011;8035;51.962;7.162;2023-08-07T02:19:52;2.63;;;1.97;;
15871;SDS011;8035;51.962;7.162;2023-08-07T02:22:18;4.53;;;2.03;;
15871;SDS011;8035;51.962;7.162;2023-08-07T02:24:44;2.73;;;1.90;;
15871;SDS011;8035;51.962;7.162;2023-08-07T02:27:10;4.07;;;1.47;;
15871;SDS011;8035;51.962;7.162;2023-08-07T02:29:35;5.33;;;1.80;;
15871;SDS011;8035;51.962;7.162;2023-08-07T02:32:01;5.53;;;1.70;;
15871;SDS011;8035;51.962;7.162;2023-08-07T02:34:28;3.40;;;2.10;;
15871;SDS011;8035;51.962;7.162;2023-08-07T02:36:54;3.23;;;2.47;;
15871;SDS011;8035;51.962;7.162;2023-08-07T02:39:20;2.17;;;1.80;;
15871;SDS011;8035;51.962;7.162;2023-08-07T02:41:45;3.63;;;1.57;;
15871;SDS011;8035;51.962;7.162;2023-08-07T02:44:11;1.30;;;1.20;;
15871;SDS011;8035;51.962;7.162;2023-08-07T02:46:36;1.53;;;1.43;;
15871;SDS011;8035;51.962;7.162;2023-08-07T02:49:02;1.87;;;1.20;;
15871;SDS011;8035;51.962;7.162;2023-08-07T02:51:28;2.20;;;1.30;;
15871;SDS011;8035;51.962;7.162;2023-08-07T02:53:53;1.80;;;1.30;;
15871;SDS011;8035;51.962;7.162;2023-08-07T02:56:19;1.93;;;1.00;;
15871;SDS011;8035;51.962;7.162;2023-08-07T02:58:44;3.33;;;1.10;;
15871;SDS011;8035;51.962;7.162;2023-08-07T03:01:10;2.73;;;1.03;;
15871;SDS011;8035;51.962;7.162;2023-08-07T03:03:36;3.43;;;0.87;;
15871;SDS011;8035;51.962;7.162;2023-08-07T03:06:02;2.30;;;0.80;;
15871;SDS011;8035;51.962;7.162;2023-08-07T03:08:28;0.73;;;0.73;;
15871;SDS011;8035;51.962;7.162;2023-08-07T03:10:54;1.27;;;0.90;;
15871;SDS011;8035;51.962;7.162;2023-08-07T03:13:22;0.80;;;0.80;;
15871;SDS011;8035;51.962;7.162;2023-08-07T03:15:48;0.83;;;0.80;;
15871;SDS011;8035;51.962;7.162;2023-08-07T03:18:18;2.80;;;0.80;;
15871;SDS011;8035;51.962;7.162;2023-08-07T03:20:44;2.53;;;1.00;;
15871;SDS011;8035;51.962;7.162;2023-08-07T03:23:10;1.43;;;0.90;;
15871;SDS011;8035;51.962;7.162;2023-08-07T03:25:35;2.00;;;0.70;;
15871;SDS011;8035;51.962;7.162;2023-08-07T03:28:01;0.63;;;0.60;;
15871;SDS011;8035;51.962;7.162;2023-08-07T03:30:27;0.80;;;0.80;;
15871;SDS011;8035;51.962;7.162;2023-08-07T03:32:53;1.67;;;0.87;;
15871;SDS011;8035;51.962;7.162;2023-08-07T03:35:19;1.10;;;0.70;;
15871;SDS011;8035;51.962;7.162;2023-08-07T03:37:44;4.20;;;1.17;;
15871;SDS011;8035;51.962;7.162;2023-08-07T03:40:10;2.63;;;1.80;;
15871;SDS011;8035;51.962;7.162;2023-08-07T03:42:36;3.87;;;2.00;;
15871;SDS011;8035;51.962;7.162;2023-08-07T03:45:01;5.57;;;2.30;;
15871;SDS011;8035;51.962;7.162;2023-08-07T03:47:27;4.80;;;2.00;;
15871;SDS011;8035;51.962;7.162;2023-08-07T03:49:52;5.43;;;2.33;;
15871;SDS011;8035;51.962;7.162;2023-08-07T03:52:18;3.17;;;1.77;;
15871;SDS011;8035;51.962;7.162;2023-08-07T03:54:43;3.30;;;2.00;;
15871;SDS011;8035;51.962;7.162;2023-08-07T03:57:09;2.93;;;1.80;;
15871;SDS011;8035;51.962;7.162;2023-08-07T03:59:35;5.73;;;1.60;;
15871;SDS011;8035;51.962;7.162;2023-08-07T04:02:01;3.13;;;1.83;;
15871;SDS011;8035;51.962;7.162;2023-08-07T04:04:27;5.27;;;1.60;;
15871;SDS011;8035;51.962;7.162;2023-08-07T04:06:52;3.50;;;1.47;;
15871;SDS011;8035;51.962;7.162;2023-08-07T04:09:18;3.67;;;1.67;;
15871;SDS011;8035;51.962;7.162;2023-08-07T04:11:44;5.33;;;1.97;;
15871;SDS011;8035;51.962;7.162;2023-08-07T04:14:09;2.93;;;1.67;;
15871;SDS011;8035;51.962;7.162;2023-08-07T04:16:35;4.97;;;1.90;;
15871;SDS011;8035;51.962;7.162;2023-08-07T04:19:02;5.53;;;2.00;;
15871;SDS011;8035;51.962;7.162;2023-08-07T04:21:27;5.70;;;2.17;;
15871;SDS011;8035;51.962;7.162;2023-08-07T04:23:54;7.00;;;2.23;;
15871;SDS011;8035;51.962;7.162;2023-08-07T04:26:20;8.20;;;2.37;;
15871;SDS011;8035;51.962;7.162;2023-08-07T04:28:45;3.73;;;2.40;;
15871;SDS011;8035;51.962;7.162;2023-08-07T04:31:11;5.53;;;2.00;;
15871;SDS011;8035;51.962;7.162;2023-08-07T04:33:37;4.43;;;2.43;;
15871;SDS011;8035;51.962;7.162;2023-08-07T04:36:03;4.53;;;2.50;;
15871;SDS011;8035;51.962;7.162;2023-08-07T04:38:29;8.53;;;2.27;;
15871;SDS011;8035;51.962;7.162;2023-08-07T04:40:54;5.53;;;1.80;;
15871;SDS011;8035;51.962;7.162;2023-08-07T04:43:20;7.90;;;2.27;;
15871;SDS011;8035;51.962;7.162;2023-08-07T04:45:46;9.60;;;3.13;;
15871;SDS011;8035;51.962;7.162;2023-08-07T04:48:11;3.90;;;2.00;;
15871;SDS011;8035;51.962;7.162;2023-08-07T04:50:37;4.10;;;2.00;;
15871;SDS011;8035;51.962;7.162;2023-08-07T04:53:06;7.07;;;1.97;;
15871;SDS011;8035;51.962;7.162;2023-08-07T04:55:32;3.07;;;1.70;;
15871;SDS011;8035;51.962;7.162;2023-08-07T04:57:57;3.73;;;1.87;;
15871;SDS011;8035;51.962;7.162;2023-08-07T05:00:23;3.40;;;1.80;;
15871;SDS011;8035;51.962;7.162;2023-08-07T05:02:49;5.43;;;2.30;;
15871;SDS011;8035;51.962;7.162;2023-08-07T05:05:15;4.60;;;2.33;;
15871;SDS011;8035;51.962;7.162;2023-08-07T05:07:42;6.30;;;1.83;;
15871;SDS011;8035;51.962;7.162;2023-08-07T05:10:08;5.53;;;1.77;;
15871;SDS011;8035;51.962;7.162;2023-08-07T05:12:34;3.80;;;1.67;;
15871;SDS011;8035;51.962;7.162;2023-08-07T05:15:00;5.00;;;1.70;;
15871;SDS011;8035;51.962;7.162;2023-08-07T05:17:26;4.57;;;1.93;;
15871;SDS011;8035;51.962;7.162;2023-08-07T05:19:52;6.10;;;2.10;;
15871;SDS011;8035;51.962;7.162;2023-08-07T05:22:17;5.83;;;1.77;;
15871;SDS011;8035;51.962;7.162;2023-08-07T05:24:43;4.27;;;1.83;;
15871;SDS011;8035;51.962;7.162;2023-08-07T05:27:10;5.83;;;2.70;;
15871;SDS011;8035;51.962;7.162;2023-08-07T05:29:35;6.23;;;2.30;;
15871;SDS011;8035;51.962;7.162;2023-08-07T05:32:08;3.87;;;2.40;;
15871;SDS011;8035;51.962;7.162;2023-08-07T05:34:37;3.30;;;2.13;;
15871;SDS011;8035;51.962;7.162;2023-08-07T05:37:03;3.77;;;2.00;;
15871;SDS011;8035;51.962;7.162;2023-08-07T05:39:29;3.23;;;2.00;;
15871;SDS011;8035;51.962;7.162;2023-08-07T05:41:55;5.30;;;2.30;;
15871;SDS011;8035;51.962;7.162;2023-08-07T05:44:23;3.87;;;2.50;;
15871;SDS011;8035;51.962;7.162;2023-08-07T05:46:49;3.90;;;2.30;;
15871;SDS011;8035;51.962;7.162;2023-08-07T05:49:15;5.23;;;2.23;;
15871;SDS011;8035;51.962;7.162;2023-08-07T05:51:41;3.50;;;2.40;;
15871;SDS011;8035;51.962;7.162;2023-08-07T05:54:06;5.73;;;2.20;;
15871;SDS011;8035;51.962;7.162;2023-08-07T05:56:32;4.57;;;2.50;;
15871;SDS011;8035;51.962;7.162;2023-08-07T05:58:57;3.40;;;2.70;;
15871;SDS011;8035;51.962;7.162;2023-08-07T06:01:23;4.77;;;2.90;;
15871;SDS011;8035;51.962;7.162;2023-08-07T06:03:54;4.90;;;2.80;;
15871;SDS011;8035;51.962;7.162;2023-08-07T06:06:20;4.70;;;2.93;;
15871;SDS011;8035;51.962;7.162;2023-08-07T06:08:45;5.77;;;2.53;;
15871;SDS011;8035;51.962;7.162;2023-08-07T06:11:11;8.40;;;2.80;;
15871;SDS011;8035;51.962;7.162;2023-08-07T06:13:37;3.70;;;2.60;;
15871;SDS011;8035;51.962;7.162;2023-08-07T06:16:02;4.60;;;2.37;;
15871;SDS011;8035;51.962;7.162;2023-08-07T06:18:28;6.73;;;2.70;;
15871;SDS011;8035;51.962;7.162;2023-08-07T06:20:55;7.90;;;2.63;;
15871;SDS011;8035;51.962;7.162;2023-08-07T06:23:21;5.90;;;2.50;;
15871;SDS011;8035;51.962;7.162;2023-08-07T06:25:47;8.20;;;2.30;;
15871;SDS011;8035;51.962;7.162;2023-08-07T06:28:12;7.07;;;2.70;;
15871;SDS011;8035;51.962;7.162;2023-08-07T06:30:38;5.10;;;2.80;;
15871;SDS011;8035;51.962;7.162;2023-08-07T06:33:04;8.97;;;2.70;;
15871;SDS011;8035;51.962;7.162;2023-08-07T06:35:29;6.30;;;2.87;;
15871;SDS011;8035;51.962;7.162;2023-08-07T06:37:55;8.03;;;2.70;;
15871;SDS011;8035;51.962;7.162;2023-08-07T06:40:20;8.23;;;2.80;;
15871;SDS011;8035;51.962;7.162;2023-08-07T06:42:46;3.87;;;2.97;;
15871;SDS011;8035;51.962;7.162;2023-08-07T06:45:12;9.87;;;3.40;;
15871;SDS011;8035;51.962;7.162;2023-08-07T06:47:37;4.40;;;2.37;;
15871;SDS011;8035;51.962;7.162;2023-08-07T06:50:03;5.53;;;2.70;;
15871;SDS011;8035;51.962;7.162;2023-08-07T06:52:28;7.00;;;2.97;;
15871;SDS011;8035;51.962;7.162;2023-08-07T06:54:54;4.73;;;2.70;;
15871;SDS011;8035;51.962;7.162;2023-08-07T06:57:19;6.63;;;3.00;;
15871;SDS011;8035;51.962;7.162;2023-08-07T06:59:45;8.57;;;3.10;;
15871;SDS011;8035;51.962;7.162;2023-08-07T07:02:10;7.70;;;2.90;;
15871;SDS011;8035;51.962;7.162;2023-08-07T07:04:36;7.63;;;3.17;;
15871;SDS011;8035;51.962;7.162;2023-08-07T07:07:02;4.70;;;3.00;;
15871;SDS011;8035;51.962;7.162;2023-08-07T07:09:28;7.50;;;2.97;;
15871;SDS011;8035;51.962;7.162;2023-08-07T07:11:54;7.10;;;2.93;;
15871;SDS011;8035;51.962;7.162;2023-08-07T07:14:20;4.13;;;2.67;;
15871;SDS011;8035;51.962;7.162;2023-08-07T07:16:46;4.17;;;2.70;;
15871;SDS011;8035;51.962;7.162;2023-08-07T07:19:12;6.77;;;2.80;;
15871;SDS011;8035;51.962;7.162;2023-08-07T07:21:38;4.73;;;2.77;;
15871;SDS011;8035;51.962;7.162;2023-08-07T07:24:03;5.83;;;2.20;;
15871;SDS011;8035;51.962;7.162;2023-08-07T07:26:29;5.83;;;2.40;;
15871;SDS011;8035;51.962;7.162;2023-08-07T07:28:55;5.37;;;2.97;;
15871;SDS011;8035;51.962;7.162;2023-08-07T07:31:21;4.43;;;2.40;;
15871;SDS011;8035;51.962;7.162;2023-08-07T07:33:47;5.43;;;2.57;;
15871;SDS011;8035;51.962;7.162;2023-08-07T07:36:15;7.30;;;2.90;;
15871;SDS011;8035;51.962;7.162;2023-08-07T07:38:41;4.73;;;2.80;;
15871;SDS011;8035;51.962;7.162;2023-08-07T07:41:07;3.40;;;2.80;;
15871;SDS011;8035;51.962;7.162;2023-08-07T07:43:36;5.27;;;2.73;;
15871;SDS011;8035;51.962;7.162;2023-08-07T07:46:02;5.47;;;2.70;;
15871;SDS011;8035;51.962;7.162;2023-08-07T07:48:28;8.20;;;3.50;;
15871;SDS011;8035;51.962;7.162;2023-08-07T07:51:00;6.53;;;2.97;;
15871;SDS011;8035;51.962;7.162;2023-08-07T07:53:27;9.37;;;3.10;;
15871;SDS011;8035;51.962;7.162;2023-08-07T07:55:52;7.37;;;3.73;;
15871;SDS011;8035;51.962;7.162;2023-08-07T07:58:18;7.20;;;2.90;;
15871;SDS011;8035;51.962;7.162;2023-08-07T08:00:44;7.40;;;3.13;;
15871;SDS011;8035;51.962;7.162;2023-08-07T08:03:09;6.60;;;2.83;;
15871;SDS011;8035;51.962;7.162;2023-08-07T08:05:35;7.27;;;3.13;;
15871;SDS011;8035;51.962;7.162;2023-08-07T08:08:01;8.57;;;3.20;;
15871;SDS011;8035;51.962;7.162;2023-08-07T08:10:27;7.50;;;3.17;;
15871;SDS011;8035;51.962;7.162;2023-08-07T08:12:54;7.57;;;3.13;;
15871;SDS011;8035;51.962;7.162;2023-08-07T08:15:20;8.57;;;3.40;;
15871;SDS011;8035;51.962;7.162;2023-08-07T08:17:47;8.80;;;3.13;;
15871;SDS011;8035;51.962;7.162;2023-08-07T08:20:13;11.93;;;2.83;;
15871;SDS011;8035;51.962;7.162;2023-08-07T08:22:45;7.70;;;3.07;;
15871;SDS011;8035;51.962;7.162;2023-08-07T08:25:11;12.50;;;3.37;;
15871;SDS011;8035;51.962;7.162;2023-08-07T08:27:38;6.73;;;2.90;;
15871;SDS011;8035;51.962;7.162;2023-08-07T08:30:04;8.73;;;3.60;;
15871;SDS011;8035;51.962;7.162;2023-08-07T08:32:31;7.00;;;2.80;;
15871;SDS011;8035;51.962;7.162;2023-08-07T08:34:56;6.37;;;2.93;;
15871;SDS011;8035;51.962;7.162;2023-08-07T08:37:22;6.20;;;2.97;;
15871;SDS011;8035;51.962;7.162;2023-08-07T08:39:48;6.87;;;2.80;;
15871;SDS011;8035;51.962;7.162;2023-08-07T08:42:14;7.60;;;3.07;;
15871;SDS011;8035;51.962;7.162;2023-08-07T08:44:45;8.60;;;3.40;;
15871;SDS011;8035;51.962;7.162;2023-08-07T08:47:16;8.70;;;3.00;;
15871;SDS011;8035;51.962;7.162;2023-08-07T08:50:24;8.03;;;2.60;;
15871;SDS011;8035;51.962;7.162;2023-08-07T08:52:38;6.83;;;2.63;;
15871;SDS011;8035;51.962;7.162;2023-08-07T08:55:06;6.67;;;2.77;;
15871;SDS011;8035;51.962;7.162;2023-08-07T08:57:33;8.43;;;2.77;;
15871;SDS011;8035;51.962;7.162;2023-08-07T09:00:00;10.10;;;2.87;;
15871;SDS011;8035;51.962;7.162;2023-08-07T09:02:27;6.57;;;2.70;;
15871;SDS011;8035;51.962;7.162;2023-08-07T09:04:53;11.73;;;2.70;;
15871;SDS011;8035;51.962;7.162;2023-08-07T09:07:19;7.23;;;2.40;;
15871;SDS011;8035;51.962;7.162;2023-08-07T09:09:46;8.00;;;2.97;;
15871;SDS011;8035;51.962;7.162;2023-08-07T09:12:15;4.77;;;2.57;;
15871;SDS011;8035;51.962;7.162;2023-08-07T09:14:53;6.53;;;2.20;;
15871;SDS011;8035;51.962;7.162;2023-08-07T09:17:30;7.20;;;2.50;;
15871;SDS011;8035;51.962;7.162;2023-08-07T09:20:00;6.80;;;2.40;;
15871;SDS011;8035;51.962;7.162;2023-08-07T09:22:25;5.80;;;2.63;;
15871;SDS011;8035;51.962;7.162;2023-08-07T09:24:51;5.87;;;2.40;;
15871;SDS011;8035;51.962;7.162;2023-08-07T09:27:17;6.90;;;2.87;;
15871;SDS011;8035;51.962;7.162;2023-08-07T09:29:43;8.13;;;2.80;;
15871;SDS011;8035;51.962;7.162;2023-08-07T09:32:09;7.03;;;2.77;;
15871;SDS011;8035;51.962;7.162;2023-08-07T09:34:38;6.73;;;2.70;;
15871;SDS011;8035;51.962;7.162;2023-08-07T09:37:05;5.83;;;2.43;;
15871;SDS011;8035;51.962;7.162;2023-08-07T09:39:30;5.37;;;2.30;;
15871;SDS011;8035;51.962;7.162;2023-08-07T09:41:56;9.27;;;3.40;;
15871;SDS011;8035;51.962;7.162;2023-08-07T09:44:21;5.33;;;2.50;;
15871;SDS011;8035;51.962;7.162;2023-08-07T09:46:47;5.40;;;2.30;;
15871;SDS011;8035;51.962;7.162;2023-08-07T09:49:13;6.53;;;2.93;;
15871;SDS011;8035;51.962;7.162;2023-08-07T09:51:45;5.73;;;2.57;;
15871;SDS011;8035;51.962;7.162;2023-08-07T09:54:11;5.50;;;2.33;;
15871;SDS011;8035;51.962;7.162;2023-08-07T09:56:40;5.63;;;2.37;;
15871;SDS011;8035;51.962;7.162;2023-08-07T09:59:06;6.20;;;2.30;;
15871;SDS011;8035;51.962;7.162;2023-08-07T10:01:33;4.37;;;2.10;;
15871;SDS011;8035;51.962;7.162;2023-08-07T10:04:03;5.13;;;2.23;;
15871;SDS011;8035;51.962;7.162;2023-08-07T10:06:29;5.60;;;2.03;;
15871;SDS011;8035;51.962;7.162;2023-08-07T10:08:55;3.77;;;1.97;;
15871;SDS011;8035;51.962;7.162;2023-08-07T10:11:22;8.53;;;2.90;;
15871;SDS011;8035;51.962;7.162;2023-08-07T10:13:48;7.80;;;2.10;;
15871;SDS011;8035;51.962;7.162;2023-08-07T10:16:15;6.03;;;2.43;;
15871;SDS011;8035;51.962;7.162;2023-08-07T10:18:40;6.10;;;2.27;;
15871;SDS011;8035;51.962;7.162;2023-08-07T10:21:06;4.93;;;2.30;;
15871;SDS011;8035;51.962;7.162;2023-08-07T10:23:35;8.70;;;2.33;;
15871;SDS011;8035;51.962;7.162;2023-08-07T10:26:03;6.77;;;2.43;;
15871;SDS011;8035;51.962;7.162;2023-08-07T10:28:31;7.03;;;2.07;;
15871;SDS011;8035;51.962;7.162;2023-08-07T10:30:59;5.53;;;2.33;;
15871;SDS011;8035;51.962;7.162;2023-08-07T10:33:25;5.37;;;2.43;;
15871;SDS011;8035;51.962;7.162;2023-08-07T10:35:52;8.33;;;2.30;;
15871;SDS011;8035;51.962;7.162;2023-08-07T10:38:22;6.53;;;2.27;;
15871;SDS011;8035;51.962;7.162;2023-08-07T10:43:42;7.53;;;3.20;;
15871;SDS011;8035;51.962;7.162;2023-08-07T10:46:10;7.00;;;2.40;;
15871;SDS011;8035;51.962;7.162;2023-08-07T10:48:40;6.80;;;2.83;;
15871;SDS011;8035;51.962;7.162;2023-08-07T10:51:08;8.20;;;2.87;;
15871;SDS011;8035;51.962;7.162;2023-08-07T10:53:37;4.00;;;2.10;;
15871;SDS011;8035;51.962;7.162;2023-08-07T10:56:07;5.47;;;2.60;;
15871;SDS011;8035;51.962;7.162;2023-08-07T10:58:38;6.57;;;2.33;;
15871;SDS011;8035;51.962;7.162;2023-08-07T11:04:06;5.23;;;2.43;;
15871;SDS011;8035;51.962;7.162;2023-08-07T11:06:36;5.23;;;2.40;;
15871;SDS011;8035;51.962;7.162;2023-08-07T11:09:04;3.90;;;2.10;;
15871;SDS011;8035;51.962;7.162;2023-08-07T11:11:38;6.07;;;2.60;;
15871;SDS011;8035;51.962;7.162;2023-08-07T11:14:17;7.90;;;2.77;;
15871;SDS011;8035;51.962;7.162;2023-08-07T11:16:45;6.47;;;2.43;;
15871;SDS011;8035;51.962;7.162;2023-08-07T11:19:13;7.43;;;2.57;;
15871;SDS011;8035;51.962;7.162;2023-08-07T11:21:39;5.37;;;2.63;;
15871;SDS011;8035;51.962;7.162;2023-08-07T11:24:05;7.13;;;2.40;;
15871;SDS011;8035;51.962;7.162;2023-08-07T11:26:31;5.87;;;2.23;;
15871;SDS011;8035;51.962;7.162;2023-08-07T11:28:57;4.90;;;2.47;;
15871;SDS011;8035;51.962;7.162;2023-08-07T11:31:23;7.57;;;2.37;;
15871;SDS011;8035;51.962;7.162;2023-08-07T11:33:50;8.50;;;2.17;;
15871;SDS011;8035;51.962;7.162;2023-08-07T11:36:20;3.77;;;2.07;;
15871;SDS011;8035;51.962;7.162;2023-08-07T11:38:45;6.90;;;1.80;;
15871;SDS011;8035;51.962;7.162;2023-08-07T11:41:12;4.67;;;1.70;;
15871;SDS011;8035;51.962;7.162;2023-08-07T11:43:40;4.40;;;2.00;;
15871;SDS011;8035;51.962;7.162;2023-08-07T11:46:07;7.77;;;2.43;;
15871;SDS011;8035;51.962;7.162;2023-08-07T11:48:34;5.87;;;2.27;;
15871;SDS011;8035;51.962;7.162;2023-08-07T11:51:01;4.33;;;2.30;;
15871;SDS011;8035;51.962;7.162;2023-08-07T11:53:28;4.23;;;1.90;;
15871;SDS011;8035;51.962;7.162;2023-08-07T11:55:55;5.23;;;2.00;;
15871;SDS011;8035;51.962;7.162;2023-08-07T11:58:23;4.93;;;1.90;;
15871;SDS011;8035;51.962;7.162;2023-08-07T12:00:50;5.17;;;2.13;;
15871;SDS011;8035;51.962;7.162;2023-08-07T12:03:35;3.23;;;1.93;;
15871;SDS011;8035;51.962;7.162;2023-08-07T12:06:03;4.77;;;1.83;;
15871;SDS011;8035;51.962;7.162;2023-08-07T12:11:06;4.13;;;1.93;;
15871;SDS011;8035;51.962;7.162;2023-08-07T12:13:39;4.50;;;1.80;;
15871;SDS011;8035;51.962;7.162;2023-08-07T12:16:08;5.50;;;2.20;;
15871;SDS011;8035;51.962;7.162;2023-08-07T12:18:34;5.27;;;2.20;;
15871;SDS011;8035;51.962;7.162;2023-08-07T12:21:03;3.77;;;1.73;;
15871;SDS011;8035;51.962;7.162;2023-08-07T12:23:30;3.97;;;2.00;;
15871;SDS011;8035;51.962;7.162;2023-08-07T12:25:58;4.27;;;1.97;;
15871;SDS011;8035;51.962;7.162;2023-08-07T12:28:24;2.57;;;1.60;;
15871;SDS011;8035;51.962;7.162;2023-08-07T12:30:50;4.67;;;2.13;;
15871;SDS011;8035;51.962;7.162;2023-08-07T12:33:16;6.23;;;2.00;;
15871;SDS011;8035;51.962;7.162;2023-08-07T12:35:42;3.00;;;1.80;;
15871;SDS011;8035;51.962;7.162;2023-08-07T12:38:08;9.27;;;2.40;;
15871;SDS011;8035;51.962;7.162;2023-08-07T12:40:35;7.17;;;2.20;;
15871;SDS011;8035;51.962;7.162;2023-08-07T12:43:01;5.07;;;2.20;;
15871;SDS011;8035;51.962;7.162;2023-08-07T12:45:27;3.07;;;1.73;;
15871;SDS011;8035;51.962;7.162;2023-08-07T12:47:53;3.97;;;1.90;;
15871;SDS011;8035;51.962;7.162;2023-08-07T12:50:18;3.30;;;1.70;;
15871;SDS011;8035;51.962;7.162;2023-08-07T12:52:44;7.23;;;2.50;;
15871;SDS011;8035;51.962;7.162;2023-08-07T12:55:10;6.07;;;2.00;;
15871;SDS011;8035;51.962;7.162;2023-08-07T12:57:37;4.63;;;1.80;;
15871;SDS011;8035;51.962;7.162;2023-08-07T13:00:03;4.67;;;2.13;;
15871;SDS011;8035;51.962;7.162;2023-08-07T13:02:29;2.77;;;1.63;;
15871;SDS011;8035;51.962;7.162;2023-08-07T13:04:55;3.10;;;1.80;;
15871;SDS011;8035;51.962;7.162;2023-08-07T13:07:22;4.93;;;1.90;;
15871;SDS011;8035;51.962;7.162;2023-08-07T13:09:47;6.30;;;2.20;;
15871;SDS011;8035;51.962;7.162;2023-08-07T13:12:13;4.17;;;1.93;;
15871;SDS011;8035;51.962;7.162;2023-08-07T13:14:38;3.43;;;1.70;;
15871;SDS011;8035;51.962;7.162;2023-08-07T13:17:04;3.77;;;1.87;;
15871;SDS011;8035;51.962;7.162;2023-08-07T13:19:30;5.00;;;2.37;;
15871;SDS011;8035;51.962;7.162;2023-08-07T13:21:55;3.53;;;1.90;;
15871;SDS011;8035;51.962;7.162;2023-08-07T13:24:21;7.37;;;2.50;;
15871;SDS011;8035;51.962;7.162;2023-08-07T13:26:46;4.40;;;2.10;;
15871;SDS011;8035;51.962;7.162;2023-08-07T13:29:12;3.53;;;1.80;;
15871;SDS011;8035;51.962;7.162;2023-08-07T13:31:38;5.43;;;2.33;;
15871;SDS011;8035;51.962;7.162;2023-08-07T13:34:06;2.90;;;1.70;;
15871;SDS011;8035;51.962;7.162;2023-08-07T13:36:37;4.27;;;2.20;;
15871;SDS011;8035;51.962;7.162;2023-08-07T13:39:03;4.30;;;2.10;;
15871;SDS011;8035;51.962;7.162;2023-08-07T13:41:29;3.60;;;2.10;;
15871;SDS011;8035;51.962;7.162;2023-08-07T13:43:55;3.93;;;1.90;;
15871;SDS011;8035;51.962;7.162;2023-08-07T13:46:21;4.33;;;2.00;;
15871;SDS011;8035;51.962;7.162;2023-08-07T13:48:50;5.23;;;2.00;;
15871;SDS011;8035;51.962;7.162;2023-08-07T13:51:15;3.90;;;2.17;;
15871;SDS011;8035;51.962;7.162;2023-08-07T13:53:41;6.50;;;2.40;;
15871;SDS011;8035;51.962;7.162;2023-08-07T13:56:07;4.17;;;1.80;;
15871;SDS011;8035;51.962;7.162;2023-08-07T13:58:36;4.77;;;2.20;;
15871;SDS011;8035;51.962;7.162;2023-08-07T14:01:01;3.13;;;1.97;;
15871;SDS011;8035;51.962;7.162;2023-08-07T14:03:29;5.60;;;2.03;;
15871;SDS011;8035;51.962;7.162;2023-08-07T14:05:54;4.93;;;1.90;;
15871;SDS011;8035;51.962;7.162;2023-08-07T14:08:20;6.03;;;2.20;;
15871;SDS011;8035;51.962;7.162;2023-08-07T14:10:46;2.87;;;2.00;;
15871;SDS011;8035;51.962;7.162;2023-08-07T14:13:11;3.20;;;1.87;;
15871;SDS011;8035;51.962;7.162;2023-08-07T14:15:37;3.47;;;1.50;;
15871;SDS011;8035;51.962;7.162;2023-08-07T14:18:03;2.83;;;1.43;;
15871;SDS011;8035;51.962;7.162;2023-08-07T14:20:28;3.13;;;1.77;;
15871;SDS011;8035;51.962;7.162;2023-08-07T14:22:54;5.33;;;1.90;;
15871;SDS011;8035;51.962;7.162;2023-08-07T14:25:19;2.73;;;1.77;;
15871;SDS011;8035;51.962;7.162;2023-08-07T14:27:48;3.37;;;1.50;;
15871;SDS011;8035;51.962;7.162;2023-08-07T14:30:14;5.37;;;1.90;;
15871;SDS011;8035;51.962;7.162;2023-08-07T14:32:40;4.03;;;1.50;;
15871;SDS011;8035;51.962;7.162;2023-08-07T14:35:07;2.87;;;1.70;;
15871;SDS011;8035;51.962;7.162;2023-08-07T14:37:34;2.40;;;1.37;;
15871;SDS011;8035;51.962;7.162;2023-08-07T14:39:59;3.13;;;2.10;;
15871;SDS011;8035;51.962;7.162;2023-08-07T14:42:26;5.20;;;2.10;;
15871;SDS011;8035;51.962;7.162;2023-08-07T14:44:51;2.33;;;1.83;;
15871;SDS011;8035;51.962;7.162;2023-08-07T14:47:17;3.90;;;1.80;;
15871;SDS011;8035;51.962;7.162;2023-08-07T14:49:43;3.67;;;1.60;;
15871;SDS011;8035;51.962;7.162;2023-08-07T14:52:08;2.67;;;1.70;;
15871;SDS011;8035;51.962;7.162;2023-08-07T14:54:34;3.97;;;1.93;;
15871;SDS011;8035;51.962;7.162;2023-08-07T14:56:59;4.30;;;1.80;;
15871;SDS011;8035;51.962;7.162;2023-08-07T14:59:25;3.33;;;1.97;;
15871;SDS011;8035;51.962;7.162;2023-08-07T15:01:51;3.60;;;1.87;;
15871;SDS011;8035;51.962;7.162;2023-08-07T15:04:18;3.30;;;2.20;;
15871;SDS011;8035;51.962;7.162;2023-08-07T15:06:43;3.37;;;1.87;;